sensor_id;sensor_type;location;lat;lon;timestamp;temperature;humidity
35682;DHT22;21805;51.022;4.782;2023-02-12T02:10:17;9.30;99.90
35682;DHT22;21805;51.022;4.782;2023-02-12T02:12:55;9.30;99.90
35682;DHT22;21805;51.022;4.782;2023-02-12T17:45:40;10.40;99.90
35682;DHT22;21805;51.022;4.782;2023-02-12T17:59:29;10.60;99.90
35682;DHT22;21805;51.022;4.782;2023-02-12T18:22:02;10.30;99.90
35682;DHT22;21805;51.022;4.782;2023-02-12T18:24:32;10.40;99.90
35682;DHT22;21805;51.022;4.782;2023-02-12T18:27:02;10.40;99.90
35682;DHT22;21805;51.022;4.782;2023-02-12T18:29:37;10.50;99.90
35682;DHT22;21805;51.022;4.782;2023-02-12T18:32:08;10.40;99.90
35682;DHT22;21805;51.022;4.782;2023-02-12T18:34:40;10.30;99.90
35682;DHT22;21805;51.022;4.782;2023-02-12T18:37:12;10.40;99.90
35682;DHT22;21805;51.022;4.782;2023-02-12T18:39:49;10.40;99.90
35682;DHT22;21805;51.022;4.782;2023-02-12T18:42:28;10.50;99.90
35682;DHT22;21805;51.022;4.782;2023-02-12T18:44:59;10.50;99.90
35682;DHT22;21805;51.022;4.782;2023-02-12T18:47:31;10.50;99.90
35682;DHT22;21805;51.022;4.782;2023-02-12T18:50:02;10.50;99.90
35682;DHT22;21805;51.022;4.782;2023-02-12T18:52:28;10.40;99.90
35682;DHT22;21805;51.022;4.782;2023-02-12T18:55:15;10.40;99.90
35682;DHT22;21805;51.022;4.782;2023-02-12T18:57:50;10.40;99.90
35682;DHT22;21805;51.022;4.782;2023-02-12T19:00:28;10.40;99.90
35682;DHT22;21805;51.022;4.782;2023-02-12T19:03:00;10.40;99.90
35682;DHT22;21805;51.022;4.782;2023-02-12T19:05:29;10.40;99.90
35682;DHT22;21805;51.022;4.782;2023-02-12T19:08:10;10.40;99.90
35682;DHT22;21805;51.022;4.782;2023-02-12T19:10:39;10.40;99.90
35682;DHT22;21805;51.022;4.782;2023-02-12T19:13:08;10.40;99.90
35682;DHT22;21805;51.022;4.782;2023-02-12T19:15:38;10.30;99.90
35682;DHT22;21805;51.022;4.782;2023-02-12T19:18:05;10.30;99.90
35682;DHT22;21805;51.022;4.782;2023-02-12T19:20:46;10.20;99.90
35682;DHT22;21805;51.022;4.782;2023-02-12T19:23:30;10.20;99.90
35682;DHT22;21805;51.022;4.782;2023-02-12T19:26:25;10.20;99.90
35682;DHT22;21805;51.022;4.782;2023-02-12T19:28:54;10.20;99.90
35682;DHT22;21805;51.022;4.782;2023-02-12T19:31:27;10.10;99.90
35682;DHT22;21805;51.022;4.782;2023-02-12T19:34:10;10.10;99.90
35682;DHT22;21805;51.022;4.782;2023-02-12T19:36:46;10.10;99.90
35682;DHT22;21805;51.022;4.782;2023-02-12T19:39:13;10.10;99.90
35682;DHT22;21805;51.022;4.782;2023-02-12T19:44:43;10.10;99.90
35682;DHT22;21805;51.022;4.782;2023-02-12T19:47:11;10.10;99.90
35682;DHT22;21805;51.022;4.782;2023-02-12T19:49:39;10.10;99.90
35682;DHT22;21805;51.022;4.782;2023-02-12T19:52:05;10.20;99.90
35682;DHT22;21805;51.022;4.782;2023-02-12T19:54:42;10.20;99.90
35682;DHT22;21805;51.022;4.782;2023-02-12T19:57:13;10.20;99.90
35682;DHT22;21805;51.022;4.782;2023-02-12T19:59:42;10.20;99.90
35682;DHT22;21805;51.022;4.782;2023-02-12T20:02:12;10.20;99.90
35682;DHT22;21805;51.022;4.782;2023-02-12T20:04:49;10.10;99.90
35682;DHT22;21805;51.022;4.782;2023-02-12T20:07:25;10.10;99.90
35682;DHT22;21805;51.022;4.782;2023-02-12T20:10:02;10.10;99.90
35682;DHT22;21805;51.022;4.782;2023-02-12T20:15:19;10.00;99.90
35682;DHT22;21805;51.022;4.782;2023-02-12T20:17:55;10.10;99.90
35682;DHT22;21805;51.022;4.782;2023-02-12T20:20:39;10.00;99.90
35682;DHT22;21805;51.022;4.782;2023-02-12T20:23:08;10.00;99.90
35682;DHT22;21805;51.022;4.782;2023-02-12T20:25:40;10.00;99.90
35682;DHT22;21805;51.022;4.782;2023-02-12T20:28:17;10.00;99.90
35682;DHT22;21805;51.022;4.782;2023-02-12T20:30:50;9.90;99.90
35682;DHT22;21805;51.022;4.782;2023-02-12T20:33:15;9.90;99.90
35682;DHT22;21805;51.022;4.782;2023-02-12T20:35:42;9.80;99.90
35682;DHT22;21805;51.022;4.782;2023-02-12T20:41:02;9.80;99.90
35682;DHT22;21805;51.022;4.782;2023-02-12T20:43:33;9.70;99.90
35682;DHT22;21805;51.022;4.782;2023-02-12T20:51:20;9.60;99.90
35682;DHT22;21805;51.022;4.782;2023-02-12T20:53:48;9.50;99.90
35682;DHT22;21805;51.022;4.782;2023-02-12T20:56:16;9.50;99.90
35682;DHT22;21805;51.022;4.782;2023-02-12T20:58:47;9.50;99.90
35682;DHT22;21805;51.022;4.782;2023-02-12T21:01:29;9.40;99.90
35682;DHT22;21805;51.022;4.782;2023-02-12T21:04:08;9.30;99.90
35682;DHT22;21805;51.022;4.782;2023-02-12T21:06:34;9.20;99.90
35682;DHT22;21805;51.022;4.782;2023-02-12T21:14:14;9.10;99.90
35682;DHT22;21805;51.022;4.782;2023-02-12T21:22:52;9.10;99.90
35682;DHT22;21805;51.022;4.782;2023-02-12T21:25:21;8.90;99.90
35682;DHT22;21805;51.022;4.782;2023-02-12T21:36:11;8.90;99.90
35682;DHT22;21805;51.022;4.782;2023-02-12T21:38:42;8.90;99.90
35682;DHT22;21805;51.022;4.782;2023-02-12T21:41:12;8.90;99.90
35682;DHT22;21805;51.022;4.782;2023-02-12T21:43:43;8.90;99.90
35682;DHT22;21805;51.022;4.782;2023-02-12T21:49:04;8.80;99.90
35682;DHT22;21805;51.022;4.782;2023-02-12T21:51:40;8.70;99.90
35682;DHT22;21805;51.022;4.782;2023-02-12T21:56:56;8.60;99.90
35682;DHT22;21805;51.022;4.782;2023-02-12T21:59:41;8.60;99.90
35682;DHT22;21805;51.022;4.782;2023-02-12T22:02:07;8.70;99.90
35682;DHT22;21805;51.022;4.782;2023-02-12T22:04:52;8.60;99.90
35682;DHT22;21805;51.022;4.782;2023-02-12T22:07:27;8.50;99.90
35682;DHT22;21805;51.022;4.782;2023-02-12T22:09:56;8.50;99.90
35682;DHT22;21805;51.022;4.782;2023-02-12T22:12:22;8.50;99.90
35682;DHT22;21805;51.022;4.782;2023-02-12T22:15:00;8.50;99.90
35682;DHT22;21805;51.022;4.782;2023-02-12T22:17:26;8.40;99.90
35682;DHT22;21805;51.022;4.782;2023-02-12T22:19:52;8.30;99.90
35682;DHT22;21805;51.022;4.782;2023-02-12T22:22:42;8.20;99.90
35682;DHT22;21805;51.022;4.782;2023-02-12T22:37:13;7.70;99.90
35682;DHT22;21805;51.022;4.782;2023-02-12T22:39:39;7.60;99.90
35682;DHT22;21805;51.022;4.782;2023-02-12T22:42:21;7.60;99.90
35682;DHT22;21805;51.022;4.782;2023-02-12T22:44:48;7.60;99.90
35682;DHT22;21805;51.022;4.782;2023-02-12T22:47:22;7.40;99.90
35682;DHT22;21805;51.022;4.782;2023-02-12T22:50:02;7.40;99.90
35682;DHT22;21805;51.022;4.782;2023-02-12T22:55:01;7.30;99.90
35682;DHT22;21805;51.022;4.782;2023-02-12T22:57:45;7.20;99.90
35682;DHT22;21805;51.022;4.782;2023-02-12T23:05:12;7.10;99.90
35682;DHT22;21805;51.022;4.782;2023-02-12T23:07:38;7.00;99.90
35682;DHT22;21805;51.022;4.782;2023-02-12T23:10:06;7.00;99.90
35682;DHT22;21805;51.022;4.782;2023-02-12T23:12:31;7.00;99.90
35682;DHT22;21805;51.022;4.782;2023-02-12T23:14:58;6.90;99.90
35682;DHT22;21805;51.022;4.782;2023-02-12T23:17:30;6.80;99.90
35682;DHT22;21805;51.022;4.782;2023-02-12T23:19:57;6.80;99.90
35682;DHT22;21805;51.022;4.782;2023-02-12T23:22:24;6.80;99.90
35682;DHT22;21805;51.022;4.782;2023-02-12T23:24:57;6.70;99.90
35682;DHT22;21805;51.022;4.782;2023-02-12T23:27:29;6.60;99.90
35682;DHT22;21805;51.022;4.782;2023-02-12T23:30:11;6.70;99.90
35682;DHT22;21805;51.022;4.782;2023-02-12T23:32:54;6.60;99.90
35682;DHT22;21805;51.022;4.782;2023-02-12T23:35:20;6.70;99.90
35682;DHT22;21805;51.022;4.782;2023-02-12T23:38:02;6.70;99.90
35682;DHT22;21805;51.022;4.782;2023-02-12T23:43:44;6.70;99.90
35682;DHT22;21805;51.022;4.782;2023-02-12T23:46:27;6.60;99.90
35682;DHT22;21805;51.022;4.782;2023-02-12T23:49:03;6.50;99.90
35682;DHT22;21805;51.022;4.782;2023-02-12T23:51:30;6.50;99.90
35682;DHT22;21805;51.022;4.782;2023-02-12T23:54:05;6.50;99.90
35682;DHT22;21805;51.022;4.782;2023-02-12T23:56:32;6.40;99.90
